Time;durP1;ratioP1;P1;durP2;ratioP2;P2;SDS_P1;SDS_P2;PMS_P1;PMS_P2;Temp;Humidity;BMP_temperature;BMP_pressure;BME280_temperature;BME280_humidity;BME280_pressure;Samples;Min_cycle;Max_cycle;Signal;HPM_P1;HPM_P2
2024/03/18 00:00:15;;;;;;;35.90;18.42;;;;;;;15.61;78.55;101587.78;4947806;28;20525;-45
2024/03/18 00:02:42;;;;;;;39.63;18.23;;;;;;;15.53;79.30;101589.47;4944401;28;20047;-46
2024/03/18 00:05:10;;;;;;;37.83;18.15;;;;;;;15.62;78.69;101593.88;4948110;28;20047;-45
2024/03/18 00:07:36;;;;;;;34.30;17.40;;;;;;;15.61;78.53;101590.41;4946790;28;20442;-46
2024/03/18 00:10:02;;;;;;;33.80;16.85;;;;;;;15.56;78.51;101593.84;4947422;28;20051;-45
2024/03/18 00:12:28;;;;;;;32.85;16.83;;;;;;;15.57;78.42;101596.50;4947369;28;20055;-45
2024/03/18 00:14:54;;;;;;;34.70;16.23;;;;;;;15.54;78.71;101585.09;4948632;28;20418;-46
2024/03/18 00:17:20;;;;;;;33.17;15.38;;;;;;;15.46;78.49;101584.16;4949325;28;20039;-44
2024/03/18 00:19:45;;;;;;;31.92;15.60;;;;;;;15.44;78.74;101584.13;4948260;28;20082;-44
2024/03/18 00:22:10;;;;;;;34.17;15.13;;;;;;;15.45;78.70;101588.53;4946917;28;20050;-45
2024/03/18 00:24:36;;;;;;;29.88;14.68;;;;;;;15.42;78.76;101593.78;4947538;28;20532;-48
2024/03/18 00:27:01;;;;;;;31.50;14.60;;;;;;;15.49;78.34;101589.44;4947557;28;20134;-48
2024/03/18 00:29:27;;;;;;;27.85;13.48;;;;;;;15.48;78.95;101585.03;4947873;28;20071;-47
2024/03/18 00:31:52;;;;;;;30.17;14.82;;;;;;;15.47;78.47;101585.91;4946284;28;20133;-45
2024/03/18 00:34:18;;;;;;;31.80;14.65;;;;;;;15.48;78.66;101583.31;4947587;28;20047;-48
2024/03/18 00:36:44;;;;;;;31.92;14.23;;;;;;;15.52;78.77;101582.47;4947582;28;20414;-46
2024/03/18 00:39:09;;;;;;;31.42;14.35;;;;;;;15.60;78.82;101574.63;4947745;28;20050;-47
2024/03/18 00:41:47;;;;;;;34.97;15.02;;;;;;;15.42;79.62;101573.63;4947487;28;20181;-47
2024/03/18 00:44:19;;;;;;;34.08;14.63;;;;;;;15.66;78.84;101575.53;4946158;28;20039;-47
2024/03/18 00:46:46;;;;;;;31.38;14.85;;;;;;;15.64;79.10;101569.38;4946436;28;20046;-45
2024/03/18 00:49:12;;;;;;;32.47;15.15;;;;;;;15.60;79.38;101572.00;4946328;28;20071;-47
2024/03/18 00:51:38;;;;;;;32.35;14.88;;;;;;;15.71;79.07;101565.03;4944275;28;20050;-46
2024/03/18 00:54:04;;;;;;;33.25;15.63;;;;;;;15.53;80.02;101562.31;4947390;28;20076;-52
2024/03/18 00:56:36;;;;;;;32.30;15.40;;;;;;;15.58;79.46;101563.22;4946260;28;20553;-52
2024/03/18 00:59:03;;;;;;;33.47;15.50;;;;;;;15.39;79.88;101564.84;4946793;28;20502;-45
2024/03/18 01:01:28;;;;;;;38.20;16.30;;;;;;;15.63;79.48;101561.47;4946494;28;20561;-45
2024/03/18 01:03:54;;;;;;;30.67;14.77;;;;;;;15.64;79.49;101556.22;4946736;28;20046;-46
2024/03/18 01:06:19;;;;;;;32.55;15.30;;;;;;;15.81;78.89;101558.91;4946918;28;20047;-46
2024/03/18 01:08:46;;;;;;;30.95;15.05;;;;;;;15.74;79.02;101547.50;4946871;28;20047;-47
2024/03/18 01:11:11;;;;;;;31.45;14.20;;;;;;;15.78;79.18;101556.28;4947418;28;20094;-45
2024/03/18 01:13:36;;;;;;;31.27;15.02;;;;;;;15.71;79.08;101557.13;4946610;28;20055;-47
2024/03/18 01:16:03;;;;;;;27.77;14.32;;;;;;;15.92;78.77;101557.16;4947087;28;20114;-46
2024/03/18 01:18:28;;;;;;;30.17;14.57;;;;;;;15.51;79.56;101557.00;4947147;28;20126;-45
2024/03/18 01:20:55;;;;;;;33.25;14.90;;;;;;;15.44;79.47;101561.38;4947684;28;20119;-45
2024/03/18 01:23:22;;;;;;;28.88;14.10;;;;;;;15.64;79.17;101556.22;4947433;28;20462;-48
2024/03/18 01:25:47;;;;;;;31.95;14.30;;;;;;;15.77;78.99;101555.41;4948073;28;20429;-46
2024/03/18 01:28:13;;;;;;;28.08;13.55;;;;;;;15.86;78.78;101551.06;4948741;28;20032;-45
2024/03/18 01:30:40;;;;;;;28.52;13.57;;;;;;;15.58;78.94;101545.69;4948596;28;20525;-45
2024/03/18 01:33:05;;;;;;;29.50;13.40;;;;;;;15.56;79.59;101550.06;4949074;28;20531;-45
2024/03/18 01:35:33;;;;;;;29.40;13.52;;;;;;;15.71;79.10;101541.34;4950269;28;20055;-46
2024/03/18 01:37:59;;;;;;;29.85;13.25;;;;;;;15.68;79.23;101538.69;4947818;28;20051;-45
2024/03/18 01:40:25;;;;;;;29.25;13.40;;;;;;;15.62;79.04;101541.31;4947133;28;20074;-44
2024/03/18 01:42:50;;;;;;;28.38;13.25;;;;;;;15.76;78.80;101534.34;4945851;28;20490;-45
2024/03/18 01:45:23;;;;;;;29.35;13.80;;;;;;;15.39;79.20;101541.19;4945996;28;20055;-45
2024/03/18 01:47:53;;;;;;;24.83;12.80;;;;;;;15.35;79.36;101542.06;4947439;28;20038;-47
2024/03/18 01:50:19;;;;;;;25.92;12.30;;;;;;;15.65;78.88;101534.34;4948443;28;20171;-49
2024/03/18 01:52:48;;;;;;;29.30;12.80;;;;;;;15.54;78.13;101535.16;4946419;28;20403;-47
2024/03/18 01:55:14;;;;;;;23.50;12.05;;;;;;;15.81;78.21;101529.97;4947035;28;20051;-46
2024/03/18 01:57:40;;;;;;;24.65;11.82;;;;;;;15.68;78.59;101531.69;4947202;28;20039;-45
2024/03/18 02:00:15;;;;;;;21.38;11.32;;;;;;;15.81;77.80;101541.38;4950596;28;20043;-44
2024/03/18 02:02:44;;;;;;;27.27;11.88;;;;;;;15.85;77.78;101526.50;4952005;28;20461;-48
2024/03/18 02:05:10;;;;;;;23.88;11.63;;;;;;;15.90;77.48;101531.75;4953434;28;20054;-46
2024/03/18 02:07:36;;;;;;;22.92;11.45;;;;;;;15.96;77.64;101526.53;4952282;28;20066;-45
2024/03/18 02:10:03;;;;;;;26.98;11.75;;;;;;;15.69;78.02;101522.94;4952047;28;20391;-47
2024/03/18 02:12:28;;;;;;;23.70;11.50;;;;;;;15.79;78.21;101518.59;4951438;28;20569;-44
2024/03/18 02:14:54;;;;;;;27.35;11.55;;;;;;;15.65;78.21;101523.81;4951665;28;20129;-50
2024/03/18 02:17:20;;;;;;;26.33;11.63;;;;;;;15.65;78.38;101523.81;4951448;28;20077;-46
2024/03/18 02:19:46;;;;;;;23.48;11.30;;;;;;;15.56;78.28;101517.63;4949850;28;20035;-50
2024/03/18 02:22:12;;;;;;;22.92;11.63;;;;;;;15.69;78.34;101512.44;4949155;28;20075;-45
2024/03/18 02:24:38;;;;;;;22.95;11.55;;;;;;;15.70;77.73;101519.44;4951436;28;20051;-47
2024/03/18 02:27:10;;;;;;;24.00;11.48;;;;;;;15.86;77.36;101514.25;4951920;28;20110;-44
2024/03/18 02:29:36;;;;;;;25.63;10.90;;;;;;;15.76;77.45;101511.56;4951101;28;20766;-46
2024/03/18 02:32:01;;;;;;;23.05;10.98;;;;;;;15.72;77.76;101503.69;4951183;28;20158;-45
2024/03/18 02:34:27;;;;;;;23.40;10.70;;;;;;;15.60;78.14;101509.78;4951095;28;20051;-45
2024/03/18 02:36:53;;;;;;;22.92;10.93;;;;;;;15.87;77.29;101501.06;4951315;28;20043;-44
2024/03/18 02:39:24;;;;;;;18.83;9.98;;;;;;;15.93;77.16;101500.19;4951532;28;20410;-45
2024/03/18 02:41:54;;;;;;;20.38;9.80;;;;;;;15.85;77.08;101496.69;4950422;28;20078;-45
2024/03/18 02:44:20;;;;;;;22.42;10.52;;;;;;;15.91;76.82;101496.72;4949351;28;20507;-44
2024/03/18 02:46:47;;;;;;;21.77;10.40;;;;;;;15.89;76.79;101488.81;4950227;28;20043;-45
2024/03/18 02:49:12;;;;;;;18.83;9.85;;;;;;;15.92;76.90;101480.91;4951062;28;20043;-45
2024/03/18 02:51:38;;;;;;;21.45;10.52;;;;;;;15.73;77.52;101482.66;4948616;28;20043;-45
2024/03/18 02:54:04;;;;;;;18.42;9.45;;;;;;;15.92;76.67;101487.97;4949739;28;20478;-47
2024/03/18 02:56:29;;;;;;;21.48;10.73;;;;;;;15.80;77.05;101484.41;4949773;28;20070;-49
2024/03/18 02:58:55;;;;;;;22.13;10.32;;;;;;;15.86;76.67;101498.47;4949330;28;20046;-49
2024/03/18 03:01:21;;;;;;;27.73;11.52;;;;;;;15.58;77.24;101490.50;4949337;28;20054;-44
2024/03/18 03:03:47;;;;;;;23.05;10.95;;;;;;;15.88;76.58;101483.53;4947298;28;20091;-47
2024/03/18 03:06:13;;;;;;;22.08;10.50;;;;;;;15.89;76.53;101487.94;4949512;28;20039;-48
2024/03/18 03:08:38;;;;;;;20.13;10.60;;;;;;;16.00;76.25;101492.31;4948611;28;20050;-47
2024/03/18 03:11:04;;;;;;;22.00;10.48;;;;;;;15.82;76.30;101487.94;4949431;28;20077;-44
2024/03/18 03:13:30;;;;;;;23.20;10.18;;;;;;;15.56;77.36;101489.59;4949934;28;20069;-44
2024/03/18 03:15:56;;;;;;;23.65;10.93;;;;;;;15.77;76.70;101484.41;4950841;28;20043;-46
2024/03/18 03:18:21;;;;;;;22.15;10.57;;;;;;;15.90;76.34;101487.06;4951067;28;20051;-44
2024/03/18 03:20:47;;;;;;;21.58;10.50;;;;;;;15.95;76.17;101483.56;4949607;28;20146;-53
2024/03/18 03:23:12;;;;;;;19.02;10.40;;;;;;;15.76;76.37;101484.41;4948649;28;20062;-50
2024/03/18 03:25:37;;;;;;;20.88;10.48;;;;;;;15.80;76.50;101491.41;4948322;28;20046;-48
2024/03/18 03:28:04;;;;;;;24.27;11.23;;;;;;;15.80;75.94;101492.28;4949731;28;20043;-46
2024/03/18 03:30:29;;;;;;;21.17;10.93;;;;;;;15.81;76.41;101487.91;4948224;28;20158;-45
2024/03/18 03:32:54;;;;;;;22.67;10.13;;;;;;;15.66;76.12;101488.78;4947676;28;20126;-45
2024/03/18 03:35:20;;;;;;;21.70;10.93;;;;;;;15.65;76.84;101492.28;4946626;28;20051;-44
2024/03/18 03:37:45;;;;;;;26.13;11.00;;;;;;;15.81;76.54;101487.91;4948060;28;20066;-46
2024/03/18 03:40:11;;;;;;;25.08;11.32;;;;;;;15.82;76.27;101498.44;4950498;28;20051;-45
2024/03/18 03:42:37;;;;;;;25.95;11.68;;;;;;;15.73;76.34;101500.19;4949592;28;20542;-43
2024/03/18 03:45:02;;;;;;;21.10;11.07;;;;;;;15.82;76.27;101505.44;4948785;28;20062;-46
2024/03/18 03:47:28;;;;;;;26.25;11.90;;;;;;;15.68;76.94;101504.53;4947332;28;20043;-46
2024/03/18 03:49:53;;;;;;;25.15;11.50;;;;;;;15.85;76.06;101501.97;4947854;28;20570;-46
2024/03/18 03:52:18;;;;;;;28.80;12.27;;;;;;;15.64;76.78;101508.91;4947674;28;20118;-47
2024/03/18 03:54:44;;;;;;;23.05;12.32;;;;;;;15.80;76.14;101513.31;4946875;28;20044;-47
2024/03/18 03:57:11;;;;;;;27.67;13.43;;;;;;;15.67;76.63;101515.94;4948525;28;20039;-47
2024/03/18 03:59:36;;;;;;;25.15;12.25;;;;;;;15.73;76.34;101515.97;4947402;28;20110;-48
2024/03/18 04:02:04;;;;;;;27.23;12.77;;;;;;;15.66;76.34;101514.19;4947782;28;20450;-47
2024/03/18 04:04:29;;;;;;;27.23;12.15;;;;;;;15.61;76.32;101519.44;4948245;28;20035;-52
2024/03/18 04:06:55;;;;;;;26.30;12.57;;;;;;;15.70;76.55;101514.19;4948873;28;20039;-45
2024/03/18 04:09:20;;;;;;;25.65;12.65;;;;;;;15.71;76.39;101518.56;4948133;28;20105;-46
2024/03/18 04:11:45;;;;;;;31.63;13.27;;;;;;;15.74;76.29;101523.81;4947967;28;20055;-49
2024/03/18 04:14:11;;;;;;;26.30;13.25;;;;;;;15.46;77.31;101524.59;4947974;28;20047;-44
2024/03/18 04:16:36;;;;;;;26.67;12.98;;;;;;;15.45;77.07;101528.09;4948240;28;20402;-49
2024/03/18 04:19:01;;;;;;;29.98;13.52;;;;;;;14.93;78.78;101527.84;4948655;28;20054;-46
2024/03/18 04:21:29;;;;;;;32.17;13.05;;;;;;;15.27;77.62;101522.75;4948604;28;20118;-43
2024/03/18 04:23:55;;;;;;;27.42;14.00;;;;;;;15.31;77.83;101530.66;4947643;28;20241;-50
2024/03/18 04:26:21;;;;;;;25.90;12.95;;;;;;;15.45;77.37;101520.19;4947724;28;20636;-45
2024/03/18 04:28:46;;;;;;;31.13;14.15;;;;;;;15.37;77.40;101533.31;4946785;28;20043;-45
2024/03/18 04:31:11;;;;;;;32.90;13.90;;;;;;;15.05;77.90;101521.78;4947680;28;20118;-46
2024/03/18 04:33:38;;;;;;;26.30;13.50;;;;;;;15.33;78.05;101531.53;4946561;28;20043;-47
2024/03/18 04:36:04;;;;;;;25.70;13.43;;;;;;;15.52;76.91;101531.63;4947550;28;20047;-45
2024/03/18 04:38:29;;;;;;;30.50;13.68;;;;;;;15.35;77.43;101531.56;4947180;28;20769;-48
2024/03/18 04:40:55;;;;;;;29.60;13.88;;;;;;;15.51;77.04;101543.00;4946911;28;20515;-46
2024/03/18 04:43:20;;;;;;;33.17;14.40;;;;;;;15.26;77.38;101534.13;4947080;28;20189;-46
2024/03/18 04:45:46;;;;;;;28.10;13.50;;;;;;;14.99;78.34;101529.63;4947097;28;20050;-44
2024/03/18 04:48:12;;;;;;;26.42;13.85;;;;;;;15.39;77.23;101528.94;4947915;28;20178;-47
2024/03/18 04:50:38;;;;;;;26.17;13.38;;;;;;;15.40;77.31;101528.06;4946794;28;20122;-48
2024/03/18 04:53:03;;;;;;;28.67;13.85;;;;;;;15.45;77.06;101530.72;4944655;28;20055;-49
2024/03/18 04:55:29;;;;;;;30.95;14.10;;;;;;;15.28;77.87;101538.53;4946919;28;20418;-46
2024/03/18 04:57:55;;;;;;;31.13;14.50;;;;;;;15.35;77.19;101534.19;4947072;28;20569;-47
2024/03/18 05:00:22;;;;;;;33.65;14.85;;;;;;;15.46;76.99;101540.34;4945864;28;20700;-46
2024/03/18 05:02:47;;;;;;;33.85;14.23;;;;;;;15.37;77.61;101542.94;4946300;28;20039;-46
2024/03/18 05:05:14;;;;;;;35.03;14.68;;;;;;;15.03;78.41;101547.16;4948688;28;20053;-46
2024/03/18 05:07:40;;;;;;;34.55;15.85;;;;;;;14.98;78.57;101546.25;4948305;28;20047;-46
2024/03/18 05:10:06;;;;;;;33.55;14.90;;;;;;;15.12;78.53;101539.34;4948074;28;20069;-47
2024/03/18 05:12:32;;;;;;;37.00;14.77;;;;;;;15.16;78.67;101541.09;4946071;28;20050;-49
2024/03/18 05:14:58;;;;;;;38.80;16.70;;;;;;;15.20;78.53;101542.88;4946755;28;20049;-46
2024/03/18 05:17:26;;;;;;;39.67;16.85;;;;;;;15.02;78.68;101548.00;4947211;28;20137;-47
2024/03/18 05:19:52;;;;;;;39.95;16.52;;;;;;;15.31;78.16;101535.91;4946532;28;20533;-46
2024/03/18 05:22:20;;;;;;;37.55;16.65;;;;;;;15.21;78.05;101534.13;4946517;28;20071;-45
2024/03/18 05:24:47;;;;;;;42.72;16.23;;;;;;;15.51;77.09;101533.38;4947329;28;20039;-48
2024/03/18 05:27:19;;;;;;;36.97;16.10;;;;;;;15.55;76.86;101532.56;4947849;28;20066;-46
2024/03/18 05:29:45;;;;;;;42.60;16.58;;;;;;;15.55;76.59;101535.19;4946684;28;20050;-46
2024/03/18 05:32:12;;;;;;;41.00;16.38;;;;;;;14.96;78.81;101540.97;4946531;28;20118;-47
2024/03/18 05:34:38;;;;;;;38.38;16.02;;;;;;;15.25;77.98;101538.50;4945269;28;20035;-45
2024/03/18 05:37:04;;;;;;;39.30;16.45;;;;;;;15.54;77.25;101545.69;4950399;28;20047;-47
2024/03/18 05:39:30;;;;;;;37.20;16.60;;;;;;;15.46;77.07;101547.34;4950155;28;21011;-48
2024/03/18 05:41:56;;;;;;;38.88;17.13;;;;;;;14.97;79.15;101540.13;4950167;28;20043;-49
2024/03/18 05:44:21;;;;;;;41.35;16.95;;;;;;;15.30;78.01;101538.53;4949745;28;20040;-46
2024/03/18 05:46:46;;;;;;;40.83;16.83;;;;;;;15.47;77.67;101534.25;4950439;28;20069;-45
2024/03/18 05:49:12;;;;;;;38.15;15.82;;;;;;;15.63;76.98;101535.19;4952343;28;20593;-45
2024/03/18 05:51:37;;;;;;;49.90;17.42;;;;;;;15.55;76.80;101526.41;4951997;28;20636;-46
2024/03/18 05:54:05;;;;;;;38.40;15.82;;;;;;;15.49;77.07;101529.84;4947931;28;20532;-45
2024/03/18 05:56:31;;;;;;;41.17;16.15;;;;;;;15.58;77.09;101534.31;4950232;28;20054;-46
2024/03/18 05:58:57;;;;;;;37.97;16.48;;;;;;;15.69;76.59;101533.47;4949996;28;20039;-48
2024/03/18 06:01:22;;;;;;;42.67;15.98;;;;;;;15.43;76.86;101535.97;4949929;28;20067;-52
2024/03/18 06:03:47;;;;;;;47.17;16.30;;;;;;;15.16;78.37;101534.97;4949404;28;20063;-46
2024/03/18 06:06:13;;;;;;;42.35;16.75;;;;;;;15.46;77.30;101527.22;4949907;28;20089;-45
2024/03/18 06:08:38;;;;;;;48.05;16.20;;;;;;;15.20;78.29;101532.34;4950279;28;20050;-46
2024/03/18 06:11:04;;;;;;;44.15;16.05;;;;;;;15.28;78.19;101537.66;4948841;28;20043;-47
2024/03/18 06:13:33;;;;;;;40.13;16.50;;;;;;;15.52;77.33;101537.78;4948600;28;20042;-47
2024/03/18 06:16:00;;;;;;;35.95;15.68;;;;;;;15.62;77.38;101542.19;4949409;28;20071;-46
2024/03/18 06:18:25;;;;;;;40.72;16.67;;;;;;;15.63;76.96;101537.81;4950444;28;20039;-48
2024/03/18 06:20:52;;;;;;;43.05;15.38;;;;;;;15.63;77.08;101545.69;4949787;28;20035;-46
2024/03/18 06:23:22;;;;;;;41.55;16.08;;;;;;;15.37;77.30;101549.06;4949914;28;20071;-45
2024/03/18 06:25:55;;;;;;;44.40;15.38;;;;;;;15.60;77.11;101562.34;4988524;23;20123;-42
2024/03/18 06:28:21;;;;;;;39.92;15.80;;;;;;;15.40;77.44;101564.84;4992714;28;20113;-41
2024/03/18 06:30:52;;;;;;;47.55;14.93;;;;;;;15.31;77.64;101546.41;4992315;28;20039;-41
2024/03/18 06:33:18;;;;;;;35.95;15.35;;;;;;;15.48;77.75;101559.66;4991692;28;20038;-42
2024/03/18 06:35:47;;;;;;;38.30;13.88;;;;;;;15.75;76.87;101558.88;4992205;28;20034;-45
2024/03/18 06:38:13;;;;;;;46.28;14.60;;;;;;;15.63;76.85;101548.34;4993375;28;20501;-41
2024/03/18 06:40:39;;;;;;;43.10;13.57;;;;;;;15.86;76.68;101554.53;4994876;28;20041;-42
2024/03/18 06:43:04;;;;;;;34.90;14.10;;;;;;;15.97;76.18;101558.09;4994586;28;20026;-43
2024/03/18 06:45:30;;;;;;;38.63;13.45;;;;;;;16.05;76.23;101565.97;4990795;28;20030;-43
2024/03/18 06:47:55;;;;;;;36.58;13.32;;;;;;;16.10;76.22;101570.34;4993333;28;20030;-42
2024/03/18 06:50:21;;;;;;;35.28;13.13;;;;;;;16.05;76.30;101566.84;4995249;28;20046;-42
2024/03/18 06:52:46;;;;;;;32.50;12.88;;;;;;;15.80;76.12;101563.28;4994246;28;20098;-43
2024/03/18 06:55:12;;;;;;;38.47;11.65;;;;;;;15.80;76.46;101575.53;4992757;28;20129;-42
2024/03/18 06:57:37;;;;;;;35.70;11.45;;;;;;;15.39;77.63;101581.50;4992474;28;20038;-44
2024/03/18 07:00:06;;;;;;;30.42;11.00;;;;;;;15.50;77.24;101581.53;4992660;28;20026;-44
2024/03/18 07:02:31;;;;;;;29.20;10.25;;;;;;;15.34;77.37;101582.34;4991738;28;20034;-43
2024/03/18 07:04:57;;;;;;;34.78;10.07;;;;;;;15.22;77.99;101596.28;4991961;28;20050;-43
2024/03/18 07:07:22;;;;;;;29.85;9.73;;;;;;;15.77;76.77;101596.59;4992431;28;20034;-40
2024/03/18 07:09:48;;;;;;;37.03;9.52;;;;;;;15.36;77.60;101593.75;4992415;28;20113;-42
2024/03/18 07:12:15;;;;;;;30.52;8.50;;;;;;;15.65;77.52;101599.16;4992857;28;20061;-42
2024/03/18 07:14:41;;;;;;;31.45;8.50;;;;;;;15.23;78.03;101602.44;4991734;28;20035;-43
2024/03/18 07:17:07;;;;;;;29.30;7.55;;;;;;;15.58;77.04;101600.00;4992548;28;20038;-43
2024/03/18 07:19:33;;;;;;;31.75;7.32;;;;;;;15.70;76.85;101598.31;4991986;28;20108;-42
2024/03/18 07:22:00;;;;;;;23.40;7.47;;;;;;;15.92;75.74;101596.63;4992673;28;20034;-43
2024/03/18 07:24:26;;;;;;;34.53;7.20;;;;;;;15.46;76.69;101598.16;4992233;28;20485;-40
2024/03/18 07:26:51;;;;;;;27.85;6.90;;;;;;;15.47;77.22;101599.06;4991766;28;20040;-44
2024/03/18 07:29:19;;;;;;;24.10;6.78;;;;;;;15.58;77.21;101600.00;4992847;28;20034;-40
2024/03/18 07:31:45;;;;;;;24.00;6.82;;;;;;;15.81;75.94;101596.59;4992146;28;20054;-43
2024/03/18 07:34:10;;;;;;;23.83;6.75;;;;;;;15.73;76.25;101607.97;4992097;28;20035;-42
2024/03/18 07:36:36;;;;;;;28.45;7.53;;;;;;;15.75;76.32;101599.19;4993000;28;20035;-42
2024/03/18 07:39:04;;;;;;;29.15;6.85;;;;;;;15.58;77.06;101605.25;4993747;28;20117;-41
2024/03/18 07:41:30;;;;;;;21.40;6.80;;;;;;;15.48;76.88;101608.69;4993313;28;20715;-41
2024/03/18 07:43:56;;;;;;;20.02;6.50;;;;;;;15.91;76.52;101599.28;4993757;28;20065;-41
2024/03/18 07:46:22;;;;;;;23.25;5.93;;;;;;;15.70;76.16;101598.31;4995354;28;20038;-41
2024/03/18 07:48:48;;;;;;;24.05;5.70;;;;;;;16.18;74.89;101597.56;4994661;28;20488;-43
2024/03/18 07:51:13;;;;;;;24.08;5.47;;;;;;;16.70;73.99;101602.03;4996051;28;20126;-40
2024/03/18 07:53:38;;;;;;;21.38;5.95;;;;;;;16.60;72.83;101602.03;4992549;28;20049;-41
2024/03/18 07:56:04;;;;;;;17.30;4.78;;;;;;;15.97;74.08;101605.44;4994219;28;20170;-41
2024/03/18 07:58:29;;;;;;;22.50;5.32;;;;;;;15.90;74.28;101608.03;4991119;28;20084;-42
2024/03/18 08:00:55;;;;;;;22.95;5.00;;;;;;;15.98;73.65;101608.94;4989681;28;20128;-43
2024/03/18 08:03:21;;;;;;;17.65;4.80;;;;;;;16.29;72.56;101608.09;4990520;28;20026;-44
2024/03/18 08:05:47;;;;;;;18.10;4.30;;;;;;;16.33;70.86;101609.00;4990569;28;20038;-45
2024/03/18 08:08:12;;;;;;;15.32;3.97;;;;;;;16.81;69.83;101606.44;4991222;28;20036;-43
2024/03/18 08:10:37;;;;;;;16.83;3.85;;;;;;;16.71;67.61;101614.34;4990143;28;20043;-41
2024/03/18 08:13:03;;;;;;;16.20;4.80;;;;;;;16.23;68.37;101618.63;4990312;28;20529;-42
2024/03/18 08:15:28;;;;;;;20.35;5.13;;;;;;;16.62;68.27;101623.97;4990162;28;20061;-44
2024/03/18 08:17:53;;;;;;;20.52;5.00;;;;;;;16.71;67.88;101625.72;4990870;28;20065;-41
2024/03/18 08:20:19;;;;;;;16.58;4.28;;;;;;;16.02;68.85;101624.72;4990961;28;20489;-46
2024/03/18 08:22:44;;;;;;;19.15;4.60;;;;;;;16.46;68.61;101639.72;4990070;28;20409;-43
2024/03/18 08:25:11;;;;;;;21.15;4.50;;;;;;;16.26;68.67;101634.44;4990895;28;20041;-42
2024/03/18 08:27:37;;;;;;;15.63;4.20;;;;;;;16.44;67.54;101636.22;4991326;28;20432;-44
2024/03/18 08:30:05;;;;;;;16.80;4.05;;;;;;;16.73;66.84;101636.25;4992977;28;20038;-42
2024/03/18 08:32:30;;;;;;;13.68;3.47;;;;;;;17.40;64.44;101637.94;4991083;28;20089;-44
2024/03/18 08:34:55;;;;;;;17.45;3.85;;;;;;;17.47;63.32;101635.28;4992018;28;20038;-41
2024/03/18 08:37:21;;;;;;;15.80;3.20;;;;;;;17.36;62.03;101635.31;4993212;28;20065;-42
2024/03/18 08:39:47;;;;;;;12.80;2.83;;;;;;;17.22;63.96;101643.25;4992524;28;20834;-41
2024/03/18 08:42:13;;;;;;;12.25;2.50;;;;;;;17.52;59.42;101646.69;4992621;28;20050;-41
2024/03/18 08:44:38;;;;;;;16.02;2.83;;;;;;;17.82;58.75;101649.25;4990864;28;20113;-42
2024/03/18 08:47:04;;;;;;;11.43;2.35;;;;;;;17.63;58.13;101647.56;4990760;28;20462;-42
2024/03/18 08:49:30;;;;;;;8.02;2.13;;;;;;;17.85;55.23;101649.25;4989926;28;20116;-43
2024/03/18 08:51:56;;;;;;;8.85;1.98;;;;;;;17.26;56.70;101646.78;4989923;28;20497;-43
2024/03/18 08:54:21;;;;;;;10.00;2.03;;;;;;;16.70;58.68;101663.50;4989770;28;20053;-43
2024/03/18 08:56:46;;;;;;;6.80;2.15;;;;;;;17.08;58.57;101655.56;4989563;28;20070;-42
2024/03/18 08:59:12;;;;;;;7.10;1.95;;;;;;;17.13;55.66;101656.47;4990659;28;20034;-44
2024/03/18 09:01:38;;;;;;;9.55;1.80;;;;;;;16.97;55.32;101654.69;4990535;28;20378;-41
2024/03/18 09:04:05;;;;;;;10.02;2.00;;;;;;;17.23;54.07;101654.69;4989690;28;20037;-42
2024/03/18 09:06:32;;;;;;;9.93;1.70;;;;;;;17.02;53.80;101661.72;4989677;28;20062;-41
2024/03/18 09:08:58;;;;;;;8.45;1.80;;;;;;;17.32;52.44;101660.78;4988244;28;20401;-42
2024/03/18 09:11:23;;;;;;;5.85;1.50;;;;;;;17.56;51.63;101667.81;4989901;28;20110;-41
2024/03/18 09:13:49;;;;;;;11.93;2.03;;;;;;;17.36;51.62;101667.84;4989204;28;20034;-43
2024/03/18 09:16:14;;;;;;;7.30;1.70;;;;;;;17.29;53.78;101673.13;4989148;28;20030;-45
2024/03/18 09:18:39;;;;;;;9.80;1.65;;;;;;;17.62;52.72;101667.81;4989779;28;20065;-45
2024/03/18 09:21:05;;;;;;;6.70;1.63;;;;;;;17.65;53.00;101673.06;4990295;28;20118;-43
2024/03/18 09:23:31;;;;;;;10.10;2.00;;;;;;;17.70;51.07;101660.75;4987792;28;20041;-45
2024/03/18 09:25:56;;;;;;;10.10;2.00;;;;;;;17.39;53.50;101659.03;4989637;28;20061;-42
2024/03/18 09:28:21;;;;;;;7.60;1.45;;;;;;;17.83;51.84;101666.84;4990150;28;20092;-41
2024/03/18 09:30:58;;;;;;;5.93;1.70;;;;;;;17.73;51.24;101665.13;4989506;28;26225;-46
2024/03/18 09:33:23;;;;;;;7.20;1.77;;;;;;;17.71;52.66;101669.53;4989272;28;20038;-42
2024/03/18 09:35:48;;;;;;;9.23;1.92;;;;;;;17.24;54.68;101667.84;4989100;28;20061;-41
2024/03/18 09:38:14;;;;;;;9.88;1.98;;;;;;;17.56;53.29;101673.06;4990124;28;20073;-41
2024/03/18 09:40:39;;;;;;;9.93;1.52;;;;;;;17.20;52.32;101674.00;4989456;28;20133;-41
2024/03/18 09:43:07;;;;;;;8.13;1.80;;;;;;;17.30;52.53;101674.88;4988151;28;20175;-42
2024/03/18 09:45:32;;;;;;;10.60;1.80;;;;;;;17.09;50.82;101677.50;4989418;28;20060;-42
2024/03/18 09:47:59;;;;;;;7.72;1.50;;;;;;;16.97;50.36;101676.66;4988473;28;20031;-42
2024/03/18 09:50:25;;;;;;;8.13;2.08;;;;;;;17.57;50.20;101682.72;4989718;28;20368;-42
2024/03/18 09:52:52;;;;;;;7.70;1.77;;;;;;;18.19;49.53;101684.28;4988766;28;20139;-43
2024/03/18 09:55:24;;;;;;;7.30;1.80;;;;;;;17.73;51.62;101688.88;4989515;28;20057;-45
2024/03/18 09:57:51;;;;;;;8.98;1.73;;;;;;;17.83;51.83;101680.91;4989377;28;20121;-40
2024/03/18 10:00:17;;;;;;;9.43;1.92;;;;;;;17.81;51.01;101682.66;4989647;28;20122;-40
2024/03/18 10:02:43;;;;;;;9.38;1.70;;;;;;;18.36;50.68;101676.28;4988885;28;20073;-42
2024/03/18 10:05:09;;;;;;;7.25;1.70;;;;;;;17.81;49.79;101682.66;4989382;28;20473;-41
2024/03/18 10:07:35;;;;;;;11.25;1.83;;;;;;;17.80;50.11;101682.69;4988997;28;20034;-43
2024/03/18 10:10:03;;;;;;;11.05;1.98;;;;;;;18.02;48.70;101687.00;4989639;28;20100;-41
2024/03/18 10:12:29;;;;;;;8.07;1.70;;;;;;;17.51;49.23;101690.63;4988804;28;20038;-43
2024/03/18 10:14:55;;;;;;;7.18;1.75;;;;;;;17.79;50.30;101686.22;4989322;28;20038;-46
2024/03/18 10:17:20;;;;;;;9.10;1.63;;;;;;;18.01;48.74;101698.44;4989561;28;20041;-43
2024/03/18 10:19:45;;;;;;;12.43;2.00;;;;;;;17.66;48.50;101687.13;4988801;28;20038;-43
2024/03/18 10:22:12;;;;;;;10.50;1.92;;;;;;;17.44;48.95;101697.69;4991943;28;20508;-43
2024/03/18 10:24:42;;;;;;;12.80;1.85;;;;;;;17.40;50.17;101702.97;4991553;28;20108;-43
2024/03/18 10:27:09;;;;;;;10.95;1.70;;;;;;;17.37;51.02;101700.34;4993054;28;20092;-44
2024/03/18 10:29:35;;;;;;;5.07;1.35;;;;;;;17.51;49.80;101700.31;4991265;28;20551;-41
2024/03/18 10:32:02;;;;;;;7.50;1.70;;;;;;;17.00;50.41;101703.00;4992637;28;20122;-44
2024/03/18 10:34:35;;;;;;;7.90;1.58;;;;;;;17.56;48.34;101704.72;4992285;28;20049;-52
2024/03/18 10:37:02;;;;;;;8.07;1.33;;;;;;;17.75;47.35;101708.19;4993231;28;20489;-45
2024/03/18 10:39:47;;;;;;;7.95;1.60;;;;;;;18.07;46.69;101692.25;4994081;28;20042;-43
2024/03/18 10:42:18;;;;;;;7.10;1.40;;;;;;;17.71;45.83;101701.19;4986223;28;20038;-41
2024/03/18 10:44:51;;;;;;;6.13;1.35;;;;;;;17.63;45.47;101700.31;4992627;28;20551;-45
2024/03/18 10:47:18;;;;;;;11.73;1.75;;;;;;;17.45;47.56;101712.63;4994826;28;20050;-43
2024/03/18 10:49:43;;;;;;;7.28;1.60;;;;;;;18.01;45.19;101698.44;4998279;28;20077;-42
2024/03/18 10:52:11;;;;;;;8.57;1.70;;;;;;;18.07;45.52;101702.81;5005725;28;20034;-45
2024/03/18 10:54:36;;;;;;;7.15;1.55;;;;;;;17.58;46.75;101712.59;5009530;28;20086;-42
2024/03/18 10:57:02;;;;;;;7.75;1.40;;;;;;;17.54;47.25;101718.78;5004581;28;20050;-41
2024/03/18 10:59:27;;;;;;;7.93;1.45;;;;;;;17.37;47.14;101721.44;4997118;28;20412;-45
2024/03/18 11:01:53;;;;;;;7.25;1.65;;;;;;;17.27;46.33;101717.91;4992762;28;20549;-44
2024/03/18 11:04:23;;;;;;;7.57;1.60;;;;;;;17.57;45.69;101722.25;4992516;28;20497;-41
2024/03/18 11:06:49;;;;;;;5.50;1.50;;;;;;;17.56;44.10;101731.09;4992254;28;20061;-46
2024/03/18 11:09:19;;;;;;;7.90;1.60;;;;;;;17.72;44.65;101721.41;4993421;28;20138;-40